Terminal Aerodrome Forecast
Issued by NWS

Home | Current Version | Previous Version | Text Only | Print | Product List | Glossary On
Versions: 1 2 3 4 5 6 7 8 9 10 11 12 13 14 15 16
000
FTUS44 KTSA 251720
TAFMLC
TAF
KMLC 251720Z 2518/2618 16011G20KT P6SM FEW100
     FM260100 18010KT P6SM SCT250
     FM261200 19012G28KT P6SM SCT025
      TEMPO 2612/2616 BKN025=

USA.gov is the U.S. government's official web portal to all federal, state and local government web resources and services.